createdAt,value
2023-04-29T00:00:53.537Z,8.91
2023-04-29T00:01:59.035Z,8.93
2023-04-29T00:03:01.709Z,8.87
2023-04-29T00:04:03.631Z,8.88
2023-04-29T00:05:06.732Z,8.93
2023-04-29T00:06:08.789Z,8.97
2023-04-29T00:07:10.553Z,9.04
2023-04-29T00:08:12.274Z,9.01
2023-04-29T00:09:13.943Z,9.01
2023-04-29T00:10:15.590Z,9.07
2023-04-29T00:11:17.148Z,9.08
2023-04-29T00:12:18.767Z,8.94
2023-04-29T00:13:21.295Z,8.77
2023-04-29T00:14:23.199Z,8.69
2023-04-29T00:15:24.742Z,8.66
2023-04-29T00:16:26.416Z,8.75
2023-04-29T00:17:28.035Z,8.83
2023-04-29T00:18:29.583Z,8.89
2023-04-29T00:19:31.502Z,8.94
2023-04-29T00:20:33.059Z,8.83
2023-04-29T00:21:34.787Z,8.75
2023-04-29T00:22:36.335Z,8.68
2023-04-29T00:23:37.911Z,8.64
2023-04-29T00:24:39.467Z,8.66
2023-04-29T00:25:41.002Z,8.72
2023-04-29T00:26:42.555Z,8.77
2023-04-29T00:27:44.094Z,8.86
2023-04-29T00:28:45.774Z,8.95
2023-04-29T00:29:47.338Z,8.99
2023-04-29T00:30:48.958Z,9.02
2023-04-29T00:31:50.897Z,9.05
2023-04-29T00:32:53.249Z,9.09
2023-04-29T00:33:54.781Z,9.12
2023-04-29T00:34:57.415Z,9.18
2023-04-29T00:35:58.963Z,9.25
2023-04-29T00:37:00.494Z,9.32
2023-04-29T00:38:02.059Z,9.33
2023-04-29T00:39:03.776Z,9.32
2023-04-29T00:40:06.783Z,9.21
2023-04-29T00:41:08.460Z,9.02
2023-04-29T00:42:10.669Z,9.07
2023-04-29T00:43:12.334Z,9.10
2023-04-29T00:44:13.883Z,9.12
2023-04-29T00:45:15.420Z,9.10
2023-04-29T00:46:17.306Z,8.92
2023-04-29T00:47:19.144Z,8.63
2023-04-29T00:48:20.666Z,8.42
2023-04-29T00:49:22.411Z,8.47
2023-04-29T00:50:24.689Z,8.51
2023-04-29T00:51:26.765Z,8.40
2023-04-29T00:52:31.576Z,8.50
2023-04-29T00:53:33.938Z,8.57
2023-04-29T00:54:35.713Z,8.70
2023-04-29T00:55:37.293Z,8.80
2023-04-29T00:56:41.921Z,8.87
2023-04-29T00:57:43.575Z,8.94
2023-04-29T00:58:50.016Z,9.01
2023-04-29T00:59:52.278Z,9.08
2023-04-29T01:00:56.472Z,9.15
2023-04-29T01:02:04.600Z,9.19
2023-04-29T01:03:06.326Z,9.25
2023-04-29T01:04:08.356Z,9.27
2023-04-29T01:05:10.567Z,9.29
2023-04-29T01:06:37.623Z,9.30
2023-04-29T01:07:52.729Z,9.35
2023-04-29T01:09:15.876Z,9.02
2023-04-29T01:10:28.743Z,8.60
2023-04-29T01:11:43.080Z,8.39
2023-04-29T01:13:36.802Z,8.23
2023-04-29T01:14:39.612Z,8.10
2023-04-29T01:16:05.564Z,8.00
2023-04-29T01:17:11.766Z,7.90
2023-04-29T01:18:20.845Z,7.77
2023-04-29T01:19:47.095Z,7.62
2023-04-29T01:20:49.219Z,7.58
2023-04-29T01:21:50.811Z,7.52
2023-04-29T01:22:52.627Z,7.53
2023-04-29T01:23:56.473Z,7.39
2023-04-29T01:24:58.217Z,7.36
2023-04-29T01:26:00.029Z,7.31
2023-04-29T01:27:29.816Z,7.22
2023-04-29T01:28:49.680Z,7.03
2023-04-29T01:30:07.598Z,6.93
2023-04-29T01:31:36.696Z,6.88
2023-04-29T01:32:56.777Z,6.91
2023-04-29T01:34:23.479Z,6.84
2023-04-29T01:36:08.865Z,6.82
2023-04-29T01:37:31.404Z,6.76
2023-04-29T01:38:49.023Z,6.81
2023-04-29T01:39:50.678Z,6.87
2023-04-29T01:41:16.004Z,6.90
2023-04-29T01:42:29.676Z,6.84
2023-04-29T01:43:34.208Z,6.85
2023-04-29T01:44:36.746Z,6.91
2023-04-29T01:45:42.290Z,6.96
2023-04-29T01:46:49.151Z,7.00
2023-04-29T01:47:53.617Z,7.07
2023-04-29T01:48:55.592Z,7.04
2023-04-29T01:49:57.196Z,7.09
2023-04-29T01:50:58.758Z,7.14
2023-04-29T01:52:00.337Z,7.16
2023-04-29T01:53:01.841Z,7.13
2023-04-29T01:54:05.235Z,7.11
2023-04-29T01:55:07.621Z,7.09
2023-04-29T01:56:09.290Z,7.15
2023-04-29T01:57:10.888Z,7.23
2023-04-29T01:58:12.465Z,7.23
2023-04-29T01:59:14.255Z,7.08
2023-04-29T02:00:16.028Z,6.99
2023-04-29T02:01:17.682Z,7.00
2023-04-29T02:02:21.571Z,7.13
2023-04-29T02:03:23.427Z,7.21
2023-04-29T02:04:25.594Z,7.20
2023-04-29T02:05:28.707Z,7.12
2023-04-29T02:06:32.238Z,7.10
2023-04-29T02:07:33.866Z,7.13
2023-04-29T02:08:35.376Z,7.07
2023-04-29T02:09:36.936Z,7.06
2023-04-29T02:10:38.595Z,7.15
2023-04-29T02:11:40.143Z,7.20
2023-04-29T02:12:41.851Z,7.16
2023-04-29T02:13:43.850Z,7.17
2023-04-29T02:14:47.859Z,7.21
2023-04-29T02:15:49.802Z,7.11
2023-04-29T02:16:51.460Z,7.17
2023-04-29T02:17:53.093Z,7.27
2023-04-29T02:18:54.665Z,7.38
2023-04-29T02:19:56.244Z,7.50
2023-04-29T02:21:04.407Z,7.58
2023-04-29T02:22:06.251Z,7.66
2023-04-29T02:23:07.794Z,7.61
2023-04-29T02:24:09.367Z,7.49
2023-04-29T02:25:11.636Z,7.39
2023-04-29T02:26:14.076Z,7.27
2023-04-29T02:27:15.708Z,7.22
2023-04-29T02:28:17.882Z,7.21
2023-04-29T02:29:19.414Z,7.11
2023-04-29T02:30:20.925Z,7.04
2023-04-29T02:31:22.545Z,7.11
2023-04-29T02:32:24.289Z,7.17
2023-04-29T02:33:25.957Z,7.23
2023-04-29T02:34:27.933Z,7.31
2023-04-29T02:35:29.892Z,7.32
2023-04-29T02:36:31.722Z,7.38
2023-04-29T02:37:33.611Z,7.47
2023-04-29T02:38:35.455Z,7.55
2023-04-29T02:39:37.044Z,7.67
2023-04-29T02:40:45.651Z,7.74
2023-04-29T02:41:47.168Z,7.86
2023-04-29T02:42:48.724Z,7.87
2023-04-29T02:43:50.330Z,7.81
2023-04-29T02:44:51.870Z,7.78
2023-04-29T02:45:53.482Z,7.77
2023-04-29T02:46:54.999Z,7.76
2023-04-29T02:47:56.658Z,7.76
2023-04-29T02:48:58.304Z,7.76
2023-04-29T02:49:59.809Z,7.78
2023-04-29T02:51:01.352Z,7.83
2023-04-29T02:52:02.869Z,7.87
2023-04-29T02:53:04.469Z,7.89
2023-04-29T02:54:06.378Z,7.84
2023-04-29T02:55:09.068Z,7.84
2023-04-29T02:56:10.610Z,7.86
2023-04-29T02:57:12.296Z,7.88
2023-04-29T02:58:13.896Z,7.91
2023-04-29T02:59:15.734Z,7.98
2023-04-29T03:00:17.328Z,8.05
2023-04-29T03:01:18.843Z,8.16
2023-04-29T03:02:20.488Z,8.22
2023-04-29T03:03:23.178Z,8.28
2023-04-29T03:04:25.578Z,8.31
2023-04-29T03:05:27.353Z,8.30
2023-04-29T03:06:28.909Z,8.28
2023-04-29T03:07:31.299Z,8.26
2023-04-29T03:08:32.842Z,8.22
2023-04-29T03:09:34.405Z,8.18
2023-04-29T03:10:36.633Z,8.14
2023-04-29T03:11:38.859Z,8.12
2023-04-29T03:12:40.450Z,8.05
2023-04-29T03:13:42.027Z,7.97
2023-04-29T03:14:43.595Z,7.94
2023-04-29T03:15:45.296Z,7.92
2023-04-29T03:16:46.873Z,7.92
2023-04-29T03:17:48.550Z,7.95
2023-04-29T03:18:50.129Z,8.00
2023-04-29T03:19:53.449Z,8.05
2023-04-29T03:20:55.145Z,7.97
2023-04-29T03:21:56.691Z,7.86
2023-04-29T03:22:58.713Z,7.85
2023-04-29T03:24:00.302Z,7.88
2023-04-29T03:25:01.946Z,7.88
2023-04-29T03:26:03.872Z,7.92
2023-04-29T03:27:05.742Z,7.94
2023-04-29T03:28:07.864Z,7.99
2023-04-29T03:29:09.557Z,7.98
2023-04-29T03:30:11.419Z,7.81
2023-04-29T03:31:13.116Z,7.63
2023-04-29T03:32:14.681Z,7.56
2023-04-29T03:33:16.542Z,7.49
2023-04-29T03:34:18.082Z,7.46
2023-04-29T03:35:19.729Z,7.48
2023-04-29T03:36:21.314Z,7.48
2023-04-29T03:37:22.881Z,7.45
2023-04-29T03:38:25.985Z,7.46
2023-04-29T03:39:32.218Z,7.49
2023-04-29T03:40:33.829Z,7.59
2023-04-29T03:41:35.525Z,7.63
2023-04-29T03:42:37.172Z,7.64
2023-04-29T03:43:38.771Z,7.65
2023-04-29T03:44:40.688Z,7.61
2023-04-29T03:45:42.209Z,7.53
2023-04-29T03:46:43.801Z,7.47
2023-04-29T03:47:45.527Z,7.36
2023-04-29T03:48:47.382Z,7.22
2023-04-29T03:49:49.364Z,7.06
2023-04-29T03:50:51.242Z,6.91
2023-04-29T03:51:52.945Z,6.85
2023-04-29T03:52:54.549Z,6.83
2023-04-29T03:53:57.855Z,6.82
2023-04-29T03:54:59.471Z,6.84
2023-04-29T03:56:01.014Z,6.95
2023-04-29T03:57:04.337Z,7.01
2023-04-29T03:58:06.259Z,7.03
2023-04-29T03:59:07.823Z,7.10
2023-04-29T04:00:09.889Z,7.13
2023-04-29T04:01:12.076Z,7.19
2023-04-29T04:02:13.719Z,7.22
2023-04-29T04:03:15.467Z,7.26
2023-04-29T04:04:17.699Z,7.32
2023-04-29T04:05:21.036Z,7.30
2023-04-29T04:06:22.638Z,7.23
2023-04-29T04:07:24.235Z,7.28
2023-04-29T04:08:25.802Z,7.34
2023-04-29T04:09:27.341Z,7.41
2023-04-29T04:10:28.938Z,7.46
2023-04-29T04:11:30.489Z,7.50
2023-04-29T04:12:32.005Z,7.46
2023-04-29T04:13:33.780Z,7.39
2023-04-29T04:14:35.304Z,7.29
2023-04-29T04:15:36.936Z,7.25
2023-04-29T04:16:38.679Z,7.25
2023-04-29T04:17:40.507Z,7.12
2023-04-29T04:18:42.061Z,7.12
2023-04-29T04:19:43.591Z,7.11
2023-04-29T04:20:45.401Z,7.14
2023-04-29T04:21:47.016Z,7.14
2023-04-29T04:22:48.778Z,7.17
2023-04-29T04:23:51.249Z,7.12
2023-04-29T04:24:55.393Z,7.00
2023-04-29T04:25:58.079Z,6.93
2023-04-29T04:26:59.672Z,6.98
2023-04-29T04:28:01.200Z,7.09
2023-04-29T04:29:02.741Z,7.22
2023-04-29T04:30:04.666Z,7.34
2023-04-29T04:31:06.346Z,7.44
2023-04-29T04:32:08.605Z,7.53
2023-04-29T04:33:10.809Z,7.61
2023-04-29T04:34:12.946Z,7.68
2023-04-29T04:35:15.076Z,7.75
2023-04-29T04:36:16.806Z,7.83
2023-04-29T04:37:18.393Z,7.90
2023-04-29T04:38:20.032Z,7.98
2023-04-29T04:39:21.645Z,8.03
2023-04-29T04:40:23.200Z,8.07
2023-04-29T04:41:24.787Z,7.99
2023-04-29T04:42:28.007Z,7.93
2023-04-29T04:43:30.013Z,7.73
2023-04-29T04:44:31.688Z,7.64
2023-04-29T04:45:33.250Z,7.56
2023-04-29T04:46:35.466Z,7.48
2023-04-29T04:47:37.390Z,7.25
2023-04-29T04:48:39.151Z,7.11
2023-04-29T04:49:40.766Z,7.13
2023-04-29T04:50:43.388Z,7.00
2023-04-29T04:51:45.573Z,6.93
2023-04-29T04:52:47.074Z,6.97
2023-04-29T04:53:48.840Z,6.95
2023-04-29T04:54:50.708Z,7.07
2023-04-29T04:55:53.315Z,7.22
2023-04-29T04:56:55.063Z,7.29
2023-04-29T04:57:57.658Z,7.33
2023-04-29T04:58:59.205Z,7.41
2023-04-29T05:00:01.599Z,7.52
2023-04-29T05:01:03.226Z,7.62
2023-04-29T05:02:04.811Z,7.68
2023-04-29T05:03:06.544Z,7.71
2023-04-29T05:04:08.348Z,7.75
2023-04-29T05:05:10.023Z,7.81
2023-04-29T05:06:11.520Z,7.72
2023-04-29T05:07:13.092Z,7.76
2023-04-29T05:08:14.693Z,7.87
2023-04-29T05:09:16.759Z,7.98
2023-04-29T05:10:18.423Z,8.06
2023-04-29T05:11:21.124Z,8.14
2023-04-29T05:12:23.530Z,8.25
2023-04-29T05:13:28.314Z,8.33
2023-04-29T05:14:29.904Z,8.41
2023-04-29T05:15:31.461Z,8.49
2023-04-29T05:16:33.216Z,8.55
2023-04-29T05:17:36.486Z,8.63
2023-04-29T05:18:38.283Z,8.69
2023-04-29T05:19:39.795Z,8.74
2023-04-29T05:20:41.418Z,8.69
2023-04-29T05:21:42.973Z,8.73
2023-04-29T05:22:44.515Z,8.80
2023-04-29T05:23:46.095Z,8.88
2023-04-29T05:24:51.697Z,8.94
2023-04-29T05:25:53.234Z,8.97
2023-04-29T05:26:54.748Z,9.00
2023-04-29T05:27:56.368Z,8.88
2023-04-29T05:28:57.908Z,8.82
2023-04-29T05:29:59.453Z,8.79
2023-04-29T05:31:01.222Z,8.74
2023-04-29T05:32:02.853Z,8.82
2023-04-29T05:33:04.448Z,8.83
2023-04-29T05:34:05.986Z,8.89
2023-04-29T05:35:08.002Z,8.91
2023-04-29T05:36:09.565Z,8.85
2023-04-29T05:37:11.122Z,8.85
2023-04-29T05:38:12.645Z,8.89
2023-04-29T05:39:14.762Z,8.96
2023-04-29T05:40:16.442Z,9.06
2023-04-29T05:41:18.554Z,9.14
2023-04-29T05:42:20.180Z,9.25
2023-04-29T05:43:21.798Z,9.32
2023-04-29T05:44:23.460Z,9.41
2023-04-29T05:45:25.084Z,9.59
2023-04-29T05:46:26.688Z,9.87
2023-04-29T05:47:28.314Z,10.04
2023-04-29T05:48:30.034Z,10.08
2023-04-29T05:49:31.652Z,10.05
2023-04-29T05:50:35.383Z,10.10
2023-04-29T05:51:37.019Z,10.14
2023-04-29T05:52:39.334Z,10.10
2023-04-29T05:53:41.108Z,10.15
2023-04-29T05:54:42.644Z,10.22
2023-04-29T05:55:45.265Z,10.28
2023-04-29T05:56:46.892Z,10.32
2023-04-29T05:57:48.514Z,10.20
2023-04-29T05:58:50.260Z,10.15
2023-04-29T05:59:51.922Z,10.23
2023-04-29T06:00:53.532Z,10.31
2023-04-29T06:01:55.161Z,10.28
2023-04-29T06:02:59.110Z,10.30
2023-04-29T06:04:01.454Z,10.34
2023-04-29T06:05:04.539Z,10.43
2023-04-29T06:06:06.662Z,10.47
2023-04-29T06:07:09.317Z,10.54
2023-04-29T06:08:10.958Z,10.72
2023-04-29T06:09:26.410Z,10.80
2023-04-29T06:10:29.352Z,10.91
2023-04-29T06:11:31.509Z,10.92
2023-04-29T06:12:33.056Z,11.09
2023-04-29T06:13:34.775Z,11.24
2023-04-29T06:14:36.468Z,11.29
2023-04-29T06:15:38.315Z,11.21
2023-04-29T06:16:40.720Z,11.36
2023-04-29T06:17:42.550Z,11.66
2023-04-29T06:18:44.141Z,11.39
2023-04-29T06:19:45.813Z,11.22
2023-04-29T06:20:47.357Z,11.25
2023-04-29T06:21:48.980Z,10.93
2023-04-29T06:22:50.707Z,10.82
2023-04-29T06:23:53.104Z,10.89
2023-04-29T06:24:54.683Z,11.09
2023-04-29T06:25:56.346Z,11.34
2023-04-29T06:26:57.945Z,11.63
2023-04-29T06:27:59.613Z,11.81
2023-04-29T06:29:01.380Z,11.98
2023-04-29T06:30:02.993Z,12.06
2023-04-29T06:31:04.632Z,12.17
2023-04-29T06:32:06.268Z,12.20
2023-04-29T06:33:08.677Z,12.29
2023-04-29T06:34:10.900Z,12.45
2023-04-29T06:35:12.479Z,12.60
2023-04-29T06:36:14.008Z,12.70
2023-04-29T06:37:15.805Z,12.79
2023-04-29T06:38:17.333Z,12.88
2023-04-29T06:39:18.907Z,12.90
2023-04-29T06:40:20.476Z,12.94
2023-04-29T06:41:22.096Z,13.10
2023-04-29T06:42:23.656Z,13.22
2023-04-29T06:43:26.732Z,13.00
2023-04-29T06:44:28.975Z,12.95
2023-04-29T06:45:31.202Z,12.91
2023-04-29T06:46:32.987Z,12.99
2023-04-29T06:47:34.564Z,13.05
2023-04-29T06:48:36.387Z,13.21
2023-04-29T06:49:38.170Z,13.46
2023-04-29T06:50:39.854Z,13.76
2023-04-29T06:51:42.791Z,13.81
2023-04-29T06:52:44.341Z,13.99
2023-04-29T06:53:46.877Z,14.03
2023-04-29T06:54:48.415Z,14.07
2023-04-29T06:55:51.027Z,14.22
2023-04-29T06:56:52.679Z,14.47
2023-04-29T06:57:54.344Z,14.65
2023-04-29T06:58:56.001Z,14.84
2023-04-29T06:59:57.563Z,15.01
2023-04-29T07:00:59.174Z,15.03
2023-04-29T07:02:00.733Z,14.72
2023-04-29T07:03:02.811Z,14.67
2023-04-29T07:04:05.297Z,14.93
2023-04-29T07:05:07.412Z,15.09
2023-04-29T07:06:09.034Z,15.24
2023-04-29T07:07:10.533Z,15.39
2023-04-29T07:08:13.377Z,15.43
2023-04-29T07:09:15.063Z,15.61
2023-04-29T07:10:16.607Z,15.76
2023-04-29T07:11:18.198Z,15.85
2023-04-29T07:12:19.754Z,15.97
2023-04-29T07:13:21.309Z,16.04
2023-04-29T07:14:23.065Z,16.18
2023-04-29T07:15:24.660Z,16.28
2023-04-29T07:16:28.184Z,16.37
2023-04-29T07:17:31.562Z,16.52
2023-04-29T07:18:33.177Z,16.62
2023-04-29T07:19:34.773Z,16.71
2023-04-29T07:20:39.366Z,16.78
2023-04-29T07:21:41.665Z,16.76
2023-04-29T07:22:43.394Z,16.43
2023-04-29T07:23:44.994Z,16.17
2023-04-29T07:24:46.568Z,15.69
2023-04-29T07:25:48.164Z,15.46
2023-04-29T07:26:49.736Z,15.32
2023-04-29T07:27:51.291Z,15.51
2023-04-29T07:28:52.805Z,15.75
2023-04-29T07:29:54.417Z,15.98
2023-04-29T07:30:56.002Z,16.21
2023-04-29T07:31:57.559Z,16.36
2023-04-29T07:32:59.074Z,16.22
2023-04-29T07:34:00.669Z,16.19
2023-04-29T07:35:03.598Z,16.34
2023-04-29T07:36:05.731Z,16.11
2023-04-29T07:37:07.343Z,15.75
2023-04-29T07:38:09.263Z,15.74
2023-04-29T07:39:12.469Z,16.15
2023-04-29T07:40:14.016Z,16.27
2023-04-29T07:41:15.581Z,16.09
2023-04-29T07:42:17.342Z,16.04
2023-04-29T07:43:18.906Z,16.10
2023-04-29T07:44:20.596Z,16.24
2023-04-29T07:45:22.164Z,16.40
2023-04-29T07:46:23.787Z,16.66
2023-04-29T07:47:25.437Z,16.81
2023-04-29T07:48:27.024Z,16.96
2023-04-29T07:49:28.705Z,17.13
2023-04-29T07:50:30.270Z,17.27
2023-04-29T07:51:32.138Z,17.48
2023-04-29T07:52:34.058Z,17.64
2023-04-29T07:53:35.652Z,17.77
2023-04-29T07:54:37.278Z,17.90
2023-04-29T07:55:39.177Z,17.94
2023-04-29T07:56:40.762Z,17.89
2023-04-29T07:57:42.290Z,17.93
2023-04-29T07:58:43.852Z,18.00
2023-04-29T07:59:45.431Z,17.90
2023-04-29T08:00:47.406Z,17.98
2023-04-29T08:01:48.944Z,18.07
2023-04-29T08:02:54.891Z,18.18
2023-04-29T08:03:56.922Z,18.34
2023-04-29T08:04:59.105Z,18.51
2023-04-29T08:06:04.803Z,18.58
2023-04-29T08:07:06.493Z,18.60
2023-04-29T08:08:08.056Z,18.73
2023-04-29T08:09:09.592Z,18.75
2023-04-29T08:10:11.286Z,18.74
2023-04-29T08:11:17.440Z,18.81
2023-04-29T08:12:19.044Z,18.91
2023-04-29T08:13:20.718Z,19.00
2023-04-29T08:14:22.283Z,19.12
2023-04-29T08:15:24.074Z,19.00
2023-04-29T08:16:27.101Z,18.80
2023-04-29T08:17:28.716Z,18.83
2023-04-29T08:18:30.408Z,18.93
2023-04-29T08:19:31.942Z,18.71
2023-04-29T08:20:33.727Z,18.53
2023-04-29T08:21:35.278Z,18.40
2023-04-29T08:22:37.458Z,18.43
2023-04-29T08:23:40.137Z,18.28
2023-04-29T08:24:42.887Z,18.24
2023-04-29T08:25:44.493Z,18.18
2023-04-29T08:26:46.767Z,18.14
2023-04-29T08:27:48.576Z,18.21
2023-04-29T08:28:50.156Z,18.31
2023-04-29T08:29:51.961Z,18.46
2023-04-29T08:30:53.823Z,18.65
2023-04-29T08:31:55.675Z,18.83
2023-04-29T08:32:57.280Z,19.02
2023-04-29T08:33:58.852Z,19.08
2023-04-29T08:35:00.390Z,19.03
2023-04-29T08:36:03.850Z,18.92
2023-04-29T08:37:05.560Z,18.63
2023-04-29T08:38:09.253Z,18.23
2023-04-29T08:39:10.809Z,18.17
2023-04-29T08:40:13.672Z,18.30
2023-04-29T08:41:16.843Z,18.61
2023-04-29T08:42:28.201Z,18.79
2023-04-29T08:43:30.739Z,18.65
2023-04-29T08:44:34.104Z,18.61
2023-04-29T08:45:37.060Z,18.61
2023-04-29T08:46:39.519Z,18.57
2023-04-29T08:47:42.397Z,18.74
2023-04-29T08:48:45.531Z,18.83
2023-04-29T08:49:47.433Z,18.89
2023-04-29T08:50:48.963Z,18.97
2023-04-29T08:51:53.358Z,19.08
2023-04-29T08:52:55.313Z,19.18
2023-04-29T08:53:57.066Z,19.19
2023-04-29T08:54:59.867Z,19.33
2023-04-29T08:56:08.913Z,19.42
2023-04-29T08:57:12.233Z,19.45
2023-04-29T08:58:15.192Z,19.42
2023-04-29T08:59:18.181Z,19.45
2023-04-29T09:00:20.121Z,19.51
2023-04-29T09:01:23.219Z,19.58
2023-04-29T09:02:26.040Z,19.57
2023-04-29T09:03:35.119Z,19.50
2023-04-29T09:05:09.795Z,19.44
2023-04-29T09:06:12.660Z,19.42
2023-04-29T09:07:15.423Z,19.36
2023-04-29T09:08:17.916Z,19.20
2023-04-29T09:09:20.935Z,19.18
2023-04-29T09:10:23.465Z,19.13
2023-04-29T09:11:25.121Z,19.12
2023-04-29T09:12:26.920Z,19.04
2023-04-29T09:13:32.796Z,19.02
2023-04-29T09:14:34.614Z,18.87
2023-04-29T09:15:41.402Z,18.81
2023-04-29T09:16:47.278Z,18.76
2023-04-29T09:17:49.715Z,18.66
2023-04-29T09:18:52.131Z,18.61
2023-04-29T09:19:53.697Z,18.42
2023-04-29T09:20:55.235Z,18.31
2023-04-29T09:21:57.176Z,18.32
2023-04-29T09:23:01.675Z,18.40
2023-04-29T09:24:03.864Z,18.39
2023-04-29T09:25:15.229Z,18.29
2023-04-29T09:26:17.269Z,18.15
2023-04-29T09:27:29.308Z,18.15
2023-04-29T09:28:31.101Z,18.12
2023-04-29T09:29:34.091Z,18.02
2023-04-29T09:30:45.993Z,17.97
2023-04-29T09:31:48.355Z,17.89
2023-04-29T09:33:09.686Z,17.79
2023-04-29T09:34:12.033Z,17.73
2023-04-29T09:35:22.664Z,17.67
2023-04-29T09:36:47.764Z,17.63
2023-04-29T09:37:49.609Z,17.59
2023-04-29T09:38:58.286Z,17.57
2023-04-29T09:40:00.062Z,17.61
2023-04-29T09:41:12.102Z,17.52
2023-04-29T09:42:14.524Z,17.48
2023-04-29T09:43:19.004Z,17.40
2023-04-29T09:44:25.910Z,17.43
2023-04-29T09:45:44.019Z,17.31
2023-04-29T09:47:05.570Z,17.17
2023-04-29T09:48:08.798Z,17.20
2023-04-29T09:49:25.333Z,17.27
2023-04-29T09:50:26.914Z,17.28
2023-04-29T09:51:28.702Z,17.30
2023-04-29T09:52:40.517Z,17.27
2023-04-29T09:53:42.182Z,17.28
2023-04-29T09:54:44.511Z,17.25
2023-04-29T09:55:59.116Z,17.24
2023-04-29T09:57:02.417Z,17.28
2023-04-29T09:58:04.052Z,17.20
2023-04-29T09:59:09.494Z,17.05
2023-04-29T10:00:12.275Z,16.95
2023-04-29T10:01:18.030Z,16.91
2023-04-29T10:02:19.902Z,16.84
2023-04-29T10:03:22.666Z,16.92
2023-04-29T10:04:26.650Z,16.96
2023-04-29T10:05:32.446Z,16.98
2023-04-29T10:06:34.277Z,16.94
2023-04-29T10:07:38.770Z,16.93
2023-04-29T10:08:41.577Z,16.89
2023-04-29T10:09:45.102Z,16.90
2023-04-29T10:10:47.256Z,16.97
2023-04-29T10:11:52.007Z,16.98
2023-04-29T10:13:25.063Z,16.96
2023-04-29T10:14:27.756Z,16.90
2023-04-29T10:15:43.040Z,16.90
2023-04-29T10:16:50.870Z,16.70
2023-04-29T10:18:03.245Z,16.58
2023-04-29T10:19:13.117Z,16.58
2023-04-29T10:20:21.539Z,16.52
2023-04-29T10:21:29.800Z,16.51
2023-04-29T10:22:40.454Z,16.56
2023-04-29T10:23:43.459Z,16.54
2023-04-29T10:24:46.936Z,16.49
2023-04-29T10:25:52.549Z,16.45
2023-04-29T10:26:56.850Z,16.48
2023-04-29T10:28:00.912Z,16.51
2023-04-29T10:29:05.513Z,16.43
2023-04-29T10:30:09.679Z,16.39
2023-04-29T10:31:13.594Z,16.38
2023-04-29T10:32:16.160Z,16.40
2023-04-29T10:33:19.075Z,16.44
2023-04-29T10:34:21.932Z,16.41
2023-04-29T10:35:25.861Z,16.38
2023-04-29T10:36:30.444Z,16.36
2023-04-29T10:37:32.730Z,16.33
2023-04-29T10:38:42.619Z,16.31
2023-04-29T10:39:53.883Z,16.27
2023-04-29T10:40:58.331Z,16.23
2023-04-29T10:42:00.017Z,16.26
2023-04-29T10:43:01.655Z,16.26
2023-04-29T10:44:04.793Z,16.30
2023-04-29T10:45:19.385Z,16.27
2023-04-29T10:46:28.744Z,16.31
2023-04-29T10:47:30.404Z,16.36
2023-04-29T10:48:32.530Z,16.44
2023-04-29T10:49:35.143Z,16.46
2023-04-29T10:50:36.626Z,16.54
2023-04-29T10:51:43.789Z,16.57
2023-04-29T10:52:52.273Z,16.49
2023-04-29T10:54:09.058Z,16.51
2023-04-29T10:55:12.466Z,16.53
2023-04-29T10:56:13.997Z,16.57
2023-04-29T10:57:22.094Z,16.61
2023-04-29T10:58:45.125Z,16.64
2023-04-29T10:59:47.060Z,16.58
2023-04-29T11:00:48.667Z,16.56
2023-04-29T11:01:52.421Z,16.56
2023-04-29T11:02:54.974Z,16.58
2023-04-29T11:04:02.477Z,16.59
2023-04-29T11:05:09.379Z,16.66
2023-04-29T11:06:11.822Z,16.62
2023-04-29T11:07:28.394Z,16.68
2023-04-29T11:08:30.068Z,16.67
2023-04-29T11:09:34.282Z,16.65
2023-04-29T11:10:37.109Z,16.66
2023-04-29T11:11:49.603Z,16.69
2023-04-29T11:13:27.000Z,16.72
2023-04-29T11:14:41.614Z,16.71
2023-04-29T11:15:43.272Z,16.68
2023-04-29T11:16:51.489Z,16.62
2023-04-29T11:17:53.312Z,16.66
2023-04-29T11:19:09.119Z,16.68
2023-04-29T11:20:14.262Z,16.73
2023-04-29T11:21:16.000Z,16.74
2023-04-29T11:22:23.359Z,16.77
2023-04-29T11:23:26.222Z,16.77
2023-04-29T11:24:29.602Z,16.74
2023-04-29T11:25:31.166Z,16.75
2023-04-29T11:26:35.395Z,16.77
2023-04-29T11:27:39.972Z,16.83
2023-04-29T11:28:43.109Z,16.85
2023-04-29T11:29:47.711Z,16.89
2023-04-29T11:30:51.082Z,16.96
2023-04-29T11:32:00.230Z,16.96
2023-04-29T11:33:02.228Z,16.96
2023-04-29T11:34:05.616Z,16.92
2023-04-29T11:35:09.165Z,16.98
2023-04-29T11:36:14.410Z,16.99
2023-04-29T11:37:20.593Z,17.05
2023-04-29T11:38:26.645Z,17.01
2023-04-29T11:39:28.474Z,17.07
2023-04-29T11:40:30.059Z,17.12
2023-04-29T11:41:32.132Z,17.16
2023-04-29T11:42:51.842Z,17.28
2023-04-29T11:43:57.836Z,17.35
2023-04-29T11:45:00.529Z,17.38
2023-04-29T11:46:02.309Z,17.44
2023-04-29T11:47:05.145Z,17.45
2023-04-29T11:48:07.410Z,17.45
2023-04-29T11:49:09.025Z,17.52
2023-04-29T11:50:12.443Z,17.67
2023-04-29T11:51:15.987Z,17.72
2023-04-29T11:52:17.941Z,17.73
2023-04-29T11:53:25.322Z,17.84
2023-04-29T11:54:27.967Z,17.94
2023-04-29T11:55:30.011Z,17.95
2023-04-29T11:56:31.711Z,18.00
2023-04-29T11:57:33.332Z,18.04
2023-04-29T11:58:35.158Z,18.02
2023-04-29T11:59:36.761Z,18.05
2023-04-29T12:00:38.611Z,18.16
2023-04-29T12:01:42.115Z,18.23
2023-04-29T12:02:49.136Z,18.31
2023-04-29T12:03:51.162Z,18.41
2023-04-29T12:04:53.218Z,18.45
2023-04-29T12:05:56.623Z,18.44
2023-04-29T12:06:59.741Z,18.39
2023-04-29T12:08:01.326Z,18.37
2023-04-29T12:09:04.615Z,18.42
2023-04-29T12:10:10.965Z,18.45
2023-04-29T12:11:12.962Z,18.48
2023-04-29T12:12:15.417Z,18.57
2023-04-29T12:13:18.644Z,18.65
2023-04-29T12:14:20.513Z,18.72
2023-04-29T12:15:22.665Z,18.74
2023-04-29T12:16:24.581Z,18.81
2023-04-29T12:17:26.223Z,18.87
2023-04-29T12:18:29.188Z,18.93
2023-04-29T12:19:31.202Z,18.96
2023-04-29T12:20:33.057Z,19.02
2023-04-29T12:21:34.668Z,19.05
2023-04-29T12:22:36.571Z,19.11
2023-04-29T12:23:39.292Z,19.17
2023-04-29T12:24:41.296Z,19.22
2023-04-29T12:25:47.603Z,19.28
2023-04-29T12:26:49.728Z,19.32
2023-04-29T12:27:51.286Z,19.36
2023-04-29T12:28:55.569Z,19.25
2023-04-29T12:29:57.596Z,19.18
2023-04-29T12:30:59.423Z,19.05
2023-04-29T12:32:01.495Z,18.95
2023-04-29T12:33:03.424Z,18.78
2023-04-29T12:34:07.462Z,18.66
2023-04-29T12:35:18.132Z,18.73
2023-04-29T12:36:20.039Z,18.74
2023-04-29T12:37:23.579Z,18.80
2023-04-29T12:38:30.265Z,18.71
2023-04-29T12:39:33.261Z,18.57
2023-04-29T12:40:34.892Z,18.67
2023-04-29T12:41:45.511Z,18.81
2023-04-29T12:42:47.200Z,18.72
2023-04-29T12:43:50.295Z,18.60
2023-04-29T12:44:52.037Z,18.66
2023-04-29T12:46:00.560Z,18.73
2023-04-29T12:47:08.890Z,18.86
2023-04-29T12:48:22.154Z,18.95
2023-04-29T12:49:30.808Z,18.98
2023-04-29T12:50:37.830Z,18.77
2023-04-29T12:51:39.411Z,18.64
2023-04-29T12:52:41.456Z,18.49
2023-04-29T12:53:43.439Z,18.40
2023-04-29T12:54:45.119Z,18.27
2023-04-29T12:55:46.769Z,18.20
2023-04-29T12:56:48.853Z,18.15
2023-04-29T12:57:51.201Z,18.20
2023-04-29T12:58:52.986Z,18.22
2023-04-29T12:59:55.083Z,18.36
2023-04-29T13:00:57.561Z,18.46
2023-04-29T13:01:59.360Z,18.51
2023-04-29T13:03:01.851Z,18.55
2023-04-29T13:04:06.251Z,18.61
2023-04-29T13:05:08.813Z,18.64
2023-04-29T13:06:10.602Z,18.64
2023-04-29T13:07:13.105Z,18.70
2023-04-29T13:08:15.792Z,18.68
2023-04-29T13:09:18.957Z,18.70
2023-04-29T13:10:20.824Z,18.65
2023-04-29T13:11:22.477Z,18.62
2023-04-29T13:12:23.981Z,18.57
2023-04-29T13:13:25.572Z,18.59
2023-04-29T13:14:27.638Z,18.51
2023-04-29T13:15:29.251Z,18.49
2023-04-29T13:16:30.773Z,18.51
2023-04-29T13:17:32.529Z,18.53
2023-04-29T13:18:34.972Z,18.42
2023-04-29T13:19:50.612Z,18.44
2023-04-29T13:20:53.842Z,18.36
2023-04-29T13:21:55.616Z,18.23
2023-04-29T13:22:57.295Z,18.01
2023-04-29T13:23:58.798Z,17.93
2023-04-29T13:25:00.853Z,17.93
2023-04-29T13:26:02.442Z,17.70
2023-04-29T13:27:04.147Z,17.69
2023-04-29T13:28:05.913Z,17.65
2023-04-29T13:29:07.602Z,17.51
2023-04-29T13:30:09.694Z,17.41
2023-04-29T13:31:11.790Z,17.38
2023-04-29T13:32:13.613Z,17.38
2023-04-29T13:33:15.428Z,17.39
2023-04-29T13:34:17.188Z,17.34
2023-04-29T13:35:18.972Z,17.39
2023-04-29T13:36:20.694Z,17.45
2023-04-29T13:37:22.307Z,17.40
2023-04-29T13:38:23.874Z,17.42
2023-04-29T13:39:27.085Z,17.39
2023-04-29T13:40:29.106Z,17.42
2023-04-29T13:41:34.476Z,17.42
2023-04-29T13:42:45.267Z,17.40
2023-04-29T13:43:51.207Z,17.29
2023-04-29T13:44:53.763Z,17.25
2023-04-29T13:45:55.985Z,17.22
2023-04-29T13:46:57.890Z,17.17
2023-04-29T13:48:08.466Z,17.15
2023-04-29T13:51:06.241Z,17.21
2023-04-29T13:52:26.243Z,17.25
2023-04-29T13:53:41.233Z,17.31